Time;durP1;ratioP1;P1;durP2;ratioP2;P2;SDS_P1;SDS_P2;PMS_P1;PMS_P2;Temp;Humidity;BMP_temperature;BMP_pressure;BME280_temperature;BME280_humidity;BME280_pressure;Samples;Min_cycle;Max_cycle;Signal;HPM_P1;HPM_P2
2022/05/03 00:01:27;;;;;;;12.88;9.13;;;3.60;99.90;;;;;;5051314;28;20037;-80
2022/05/03 00:04:29;;;;;;;14.32;9.57;;;3.60;99.90;;;;;;5051004;28;20052;-79
2022/05/03 00:07:09;;;;;;;13.82;9.07;;;3.60;99.90;;;;;;5051296;28;20074;-79
2022/05/03 00:09:44;;;;;;;12.57;8.38;;;3.70;99.90;;;;;;5051090;28;20029;-79
2022/05/03 00:12:12;;;;;;;14.15;9.77;;;3.50;99.90;;;;;;5051200;28;20029;-80
2022/05/03 00:14:48;;;;;;;16.67;9.38;;;3.60;99.90;;;;;;5050877;28;20045;-80
2022/05/03 00:17:15;;;;;;;13.40;8.40;;;3.50;99.90;;;;;;5051267;28;20017;-80
2022/05/03 00:19:42;;;;;;;16.30;9.20;;;3.50;99.90;;;;;;5050883;28;20036;-79
2022/05/03 00:22:11;;;;;;;12.27;9.07;;;3.50;99.90;;;;;;5051190;28;20051;-79
2022/05/03 00:24:36;;;;;;;13.57;9.00;;;3.50;99.90;;;;;;5037778;28;20029;-79
2022/05/03 00:27:02;;;;;;;12.38;7.95;;;3.40;99.90;;;;;;5057599;28;20500;-79
2022/05/03 00:29:29;;;;;;;11.02;7.88;;;3.70;99.90;;;;;;5057704;28;20108;-79
2022/05/03 00:31:56;;;;;;;11.38;7.93;;;3.70;99.90;;;;;;5057578;28;20128;-79
2022/05/03 00:34:22;;;;;;;12.35;7.07;;;3.50;99.90;;;;;;5039604;28;20051;-79
2022/05/03 00:36:47;;;;;;;8.73;6.28;;;3.50;99.90;;;;;;5057242;28;20443;-79
2022/05/03 00:39:13;;;;;;;8.27;6.43;;;3.30;99.90;;;;;;5057233;28;20025;-79
2022/05/03 00:41:50;;;;;;;9.68;6.95;;;3.50;99.90;;;;;;5057298;28;20387;-79
2022/05/03 00:47:31;;;;;;;10.15;7.22;;;3.50;99.90;;;;;;5057379;28;20062;-79
2022/05/03 00:50:06;;;;;;;12.57;8.48;;;3.50;99.90;;;;;;5057260;28;20093;-79
2022/05/03 00:52:49;;;;;;;11.57;7.90;;;3.50;99.90;;;;;;5057292;28;20021;-79
2022/05/03 00:55:52;;;;;;;14.82;8.75;;;3.40;99.90;;;;;;5057454;28;20021;-79
2022/05/03 00:58:45;;;;;;;13.77;8.15;;;3.20;99.90;;;;;;5057300;28;20036;-79
2022/05/03 01:01:31;;;;;;;12.20;9.20;;;3.20;99.90;;;;;;5057296;28;20040;-79
2022/05/03 01:04:31;;;;;;;14.10;9.45;;;3.20;99.90;;;;;;5057304;28;20055;-79
2022/05/03 01:07:21;;;;;;;13.57;9.55;;;3.20;99.90;;;;;;5057557;28;20029;-79
2022/05/03 01:10:16;;;;;;;12.50;8.43;;;3.30;99.90;;;;;;5057175;28;20032;-79
2022/05/03 01:12:54;;;;;;;14.57;8.95;;;3.30;99.90;;;;;;5101799;22;20041;-77
2022/05/03 01:15:22;;;;;;;13.25;9.15;;;3.40;99.90;;;;;;5024541;28;20080;-78
2022/05/03 01:18:24;;;;;;;15.18;9.30;;;3.30;99.90;;;;;;5034493;28;20017;-78
2022/05/03 01:21:09;;;;;;;12.95;9.00;;;3.30;99.90;;;;;;5036488;28;20026;-78
2022/05/03 01:23:38;;;;;;;16.77;9.90;;;3.20;99.90;;;;;;5036232;28;20064;-78
2022/05/03 01:26:43;;;;;;;13.20;9.00;;;3.10;99.90;;;;;;5036485;28;20043;-78
2022/05/03 01:29:18;;;;;;;13.85;9.30;;;3.10;99.90;;;;;;5036744;28;20017;-78
2022/05/03 01:31:43;;;;;;;14.48;10.05;;;3.30;99.90;;;;;;5020272;28;20041;-78
2022/05/03 01:34:12;;;;;;;14.15;10.30;;;3.20;99.90;;;;;;5049834;28;20017;-78
2022/05/03 01:37:00;;;;;;;15.40;10.13;;;3.30;99.90;;;;;;5032663;28;20468;-78
2022/05/03 01:39:58;;;;;;;17.45;10.68;;;3.30;99.90;;;;;;5033260;28;20025;-78
2022/05/03 01:42:38;;;;;;;17.52;10.52;;;3.40;99.90;;;;;;5032017;28;20064;-78
2022/05/03 01:45:09;;;;;;;18.33;11.00;;;3.50;99.90;;;;;;5033140;28;20379;-77
2022/05/03 01:51:25;;;;;;;;;;;4.10;99.90;;;;;;5033759;28;20032;-77
2022/05/03 01:54:12;;;;;;;23.45;13.25;;;4.30;99.90;;;;;;5032982;28;19909;-78
2022/05/03 01:57:08;;;;;;;25.27;13.88;;;4.60;99.90;;;;;;5032965;28;20028;-78
2022/05/03 02:00:06;;;;;;;22.73;14.23;;;4.80;99.90;;;;;;5031747;28;20065;-78
2022/05/03 02:02:40;;;;;;;27.45;15.07;;;5.00;99.90;;;;;;5048424;28;20501;-77
2022/05/03 02:05:07;;;;;;;31.90;16.27;;;5.30;99.90;;;;;;5031480;28;20456;-77
2022/05/03 02:07:55;;;;;;;29.58;16.52;;;5.40;99.90;;;;;;5031496;28;20025;-78
2022/05/03 02:10:57;;;;;;;29.58;15.77;;;5.40;99.90;;;;;;5032838;28;20075;-77
2022/05/03 02:16:54;;;;;;;30.92;17.33;;;5.70;99.90;;;;;;5013377;28;20441;-77
2022/05/03 02:19:22;;;;;;;33.17;17.17;;;5.80;99.90;;;;;;5011599;28;20049;-77
2022/05/03 02:22:02;;;;;;;31.05;17.10;;;6.00;99.90;;;;;;5011427;28;20029;-78
2022/05/03 02:25:05;;;;;;;36.50;17.73;;;6.10;99.90;;;;;;5012833;28;20036;-78
2022/05/03 02:27:34;;;;;;;33.33;17.02;;;6.20;99.90;;;;;;5012568;28;20561;-77
2022/05/03 02:30:20;;;;;;;38.50;19.40;;;6.30;99.90;;;;;;5012049;28;20427;-78
2022/05/03 02:33:01;;;;;;;36.33;19.50;;;6.40;99.90;;;;;;5027781;28;20124;-77
2022/05/03 02:35:35;;;;;;;38.22;19.35;;;6.50;99.90;;;;;;5028692;28;20036;-77
2022/05/03 02:38:07;;;;;;;36.90;18.65;;;6.70;99.90;;;;;;5013383;28;20390;-77
2022/05/03 02:40:41;;;;;;;38.70;19.80;;;6.80;99.90;;;;;;5013280;28;20034;-78
2022/05/03 02:43:09;;;;;;;33.22;17.45;;;6.90;99.90;;;;;;5013527;28;20034;-77
2022/05/03 02:45:40;;;;;;;33.25;17.45;;;6.90;99.90;;;;;;5013619;28;20030;-78
2022/05/03 02:48:20;;;;;;;35.20;18.15;;;7.00;99.90;;;;;;5013130;28;20145;-78
2022/05/03 02:50:53;;;;;;;34.03;18.17;;;7.10;99.90;;;;;;5013364;28;20037;-77
2022/05/03 02:53:37;;;;;;;36.10;18.80;;;7.20;99.90;;;;;;5013185;28;20026;-77
2022/05/03 02:56:16;;;;;;;42.60;20.65;;;7.30;99.90;;;;;;5013054;28;20030;-78
2022/05/03 02:59:00;;;;;;;42.03;22.15;;;7.40;99.90;;;;;;5013371;28;20762;-78
2022/05/03 03:01:50;;;;;;;41.63;21.52;;;7.40;99.90;;;;;;5013011;28;20033;-78
2022/05/03 03:04:25;;;;;;;43.78;21.90;;;7.60;99.90;;;;;;5008605;28;20033;-77
2022/05/03 03:06:55;;;;;;;47.45;23.05;;;7.60;99.90;;;;;;4993407;28;20033;-77
2022/05/03 03:09:40;;;;;;;51.60;24.30;;;7.70;99.90;;;;;;4992371;28;20035;-78
2022/05/03 03:12:44;;;;;;;50.47;23.15;;;7.80;99.90;;;;;;4991187;28;20037;-78
2022/05/03 03:15:10;;;;;;;55.85;24.48;;;7.80;99.90;;;;;;4993287;28;20042;-78
2022/05/03 03:17:42;;;;;;;49.63;24.20;;;8.00;99.90;;;;;;4991769;28;20027;-77
2022/05/03 03:20:12;;;;;;;51.47;23.00;;;8.00;99.90;;;;;;5008253;28;20026;-77
2022/05/03 03:22:47;;;;;;;47.00;23.80;;;8.00;99.90;;;;;;5008097;28;20125;-78
2022/05/03 03:25:16;;;;;;;44.20;23.35;;;8.10;99.90;;;;;;4993251;28;20037;-78
2022/05/03 03:27:47;;;;;;;42.13;22.67;;;8.10;99.90;;;;;;4992971;28;20054;-77
2022/05/03 03:30:14;;;;;;;41.47;21.27;;;8.20;99.90;;;;;;4975948;28;20027;-77
2022/05/03 03:32:49;;;;;;;41.97;21.05;;;8.20;99.90;;;;;;4992891;28;20022;-77
2022/05/03 03:35:16;;;;;;;35.45;19.38;;;8.20;99.90;;;;;;4993045;28;20105;-77
2022/05/03 03:37:47;;;;;;;37.78;19.92;;;8.20;99.90;;;;;;4994807;28;20026;-77
2022/05/03 03:40:14;;;;;;;39.45;20.02;;;8.20;99.90;;;;;;5011282;28;20129;-77
2022/05/03 03:42:41;;;;;;;41.17;21.98;;;8.30;99.90;;;;;;5011041;28;20073;-77
2022/05/03 03:45:08;;;;;;;38.75;21.30;;;8.30;99.90;;;;;;5012397;28;20036;-78
2022/05/03 03:47:35;;;;;;;43.10;22.25;;;8.30;99.90;;;;;;5027333;28;20048;-77
2022/05/03 03:50:02;;;;;;;44.58;23.33;;;8.40;99.90;;;;;;5012928;28;20041;-78
2022/05/03 03:52:28;;;;;;;44.10;21.58;;;8.50;99.90;;;;;;5012071;28;20026;-78
2022/05/03 03:54:54;;;;;;;44.45;22.50;;;8.50;99.90;;;;;;5012282;28;20423;-78
2022/05/03 03:57:21;;;;;;;47.08;23.35;;;8.50;99.90;;;;;;5011135;28;20030;-78
2022/05/03 03:59:48;;;;;;;45.28;23.13;;;8.50;99.90;;;;;;5010403;28;20021;-78
2022/05/03 04:02:15;;;;;;;54.67;26.35;;;8.60;99.90;;;;;;5010897;28;20041;-78
2022/05/03 04:04:42;;;;;;;48.33;23.83;;;8.70;99.90;;;;;;5010948;28;20046;-78
2022/05/03 04:07:07;;;;;;;48.35;23.92;;;8.70;99.90;;;;;;5010923;28;20361;-78
2022/05/03 04:09:33;;;;;;;47.58;24.58;;;8.70;99.90;;;;;;5026159;28;20029;-78
2022/05/03 04:12:04;;;;;;;47.00;24.02;;;8.80;99.90;;;;;;5010857;28;20030;-78
2022/05/03 04:14:30;;;;;;;;;;;8.90;99.90;;;;;;5011109;28;20050;-78
2022/05/03 04:16:57;;;;;;;52.03;24.90;;;8.90;99.90;;;;;;4993279;28;19910;-78
2022/05/03 04:19:23;;;;;;;43.50;23.35;;;8.90;99.90;;;;;;5010808;28;20034;-78
2022/05/03 04:21:49;;;;;;;47.67;22.80;;;9.00;99.90;;;;;;5010808;28;20022;-78
2022/05/03 04:24:15;;;;;;;44.72;23.30;;;9.00;99.90;;;;;;5011008;28;20050;-77
2022/05/03 04:26:41;;;;;;;40.72;21.45;;;9.10;99.90;;;;;;5010987;28;20022;-78
2022/05/03 04:29:06;;;;;;;42.92;22.35;;;9.10;99.90;;;;;;5010740;28;20030;-78
2022/05/03 04:31:34;;;;;;;42.13;21.75;;;9.10;99.90;;;;;;5011065;28;20476;-78
2022/05/03 04:34:02;;;;;;;42.63;23.38;;;9.20;99.90;;;;;;5025954;28;20480;-78
2022/05/03 04:36:29;;;;;;;42.17;23.13;;;9.20;99.90;;;;;;5010922;28;20018;-78
2022/05/03 04:38:55;;;;;;;40.45;22.15;;;9.30;99.90;;;;;;5010787;28;20014;-78
2022/05/03 04:41:21;;;;;;;44.05;22.02;;;9.30;99.90;;;;;;5010820;28;20053;-78
2022/05/03 04:43:47;;;;;;;45.40;23.15;;;9.30;99.90;;;;;;5010635;28;20033;-78
2022/05/03 04:46:13;;;;;;;49.22;24.45;;;9.40;99.90;;;;;;5009506;28;20022;-78
2022/05/03 04:48:40;;;;;;;45.78;23.50;;;9.40;99.90;;;;;;5011023;28;20472;-78
2022/05/03 04:51:24;;;;;;;46.78;22.65;;;9.50;99.90;;;;;;5010878;28;20029;-78
2022/05/03 04:53:50;;;;;;;45.90;23.92;;;9.60;99.90;;;;;;5010500;28;20022;-78
2022/05/03 04:56:18;;;;;;;48.92;23.95;;;9.60;99.90;;;;;;5010907;28;20018;-78
2022/05/03 04:58:44;;;;;;;43.15;22.83;;;9.70;99.90;;;;;;5010497;28;20108;-78
2022/05/03 05:01:09;;;;;;;45.70;22.35;;;9.70;99.90;;;;;;5009406;28;20456;-78
2022/05/03 05:03:35;;;;;;;50.03;23.98;;;9.70;99.90;;;;;;5025595;28;20423;-78
2022/05/03 05:06:00;;;;;;;42.05;22.67;;;9.80;99.90;;;;;;5010523;28;20068;-78
2022/05/03 05:08:26;;;;;;;45.58;22.70;;;9.80;99.90;;;;;;5010480;28;20472;-78
2022/05/03 05:10:52;;;;;;;39.75;21.00;;;9.90;99.90;;;;;;5011850;28;20025;-78
2022/05/03 05:13:17;;;;;;;43.03;20.67;;;9.90;99.90;;;;;;5012781;28;20061;-78
2022/05/03 05:15:43;;;;;;;40.60;19.98;;;9.90;99.90;;;;;;5014460;28;20026;-78
2022/05/03 05:18:09;;;;;;;37.65;19.42;;;9.90;99.90;;;;;;5012825;28;20046;-78
2022/05/03 05:20:35;;;;;;;33.80;18.20;;;10.00;99.90;;;;;;5012644;28;20435;-78
2022/05/03 05:23:01;;;;;;;37.22;19.20;;;9.90;99.90;;;;;;5013979;28;20038;-78
2022/05/03 05:25:26;;;;;;;34.17;18.67;;;10.00;99.90;;;;;;5012660;28;20022;-78
2022/05/03 05:27:52;;;;;;;42.30;21.00;;;10.00;99.90;;;;;;5014189;28;20018;-78
2022/05/03 05:30:17;;;;;;;45.38;21.45;;;10.10;99.90;;;;;;5013875;28;20033;-78
2022/05/03 05:32:43;;;;;;;40.13;20.40;;;10.10;99.90;;;;;;5012531;28;20018;-78
2022/05/03 05:35:10;;;;;;;44.83;21.23;;;10.10;99.90;;;;;;5013909;28;20033;-79
2022/05/03 05:37:36;;;;;;;42.53;19.98;;;10.10;99.90;;;;;;5013723;28;20024;-78
2022/05/03 05:40:01;;;;;;;39.55;18.92;;;10.20;99.90;;;;;;5013728;28;20034;-78
2022/05/03 05:42:27;;;;;;;36.15;18.60;;;10.20;99.90;;;;;;5013584;28;20030;-78
2022/05/03 05:44:52;;;;;;;36.35;18.42;;;10.30;99.90;;;;;;5012566;28;20054;-78
2022/05/03 05:47:18;;;;;;;39.63;17.27;;;10.30;99.90;;;;;;5013555;28;20488;-78
2022/05/03 05:49:44;;;;;;;33.63;16.60;;;10.30;99.90;;;;;;5013411;28;20026;-78
2022/05/03 05:54:54;;;;;;;30.77;14.40;;;10.30;99.90;;;;;;5013566;28;20037;-78
2022/05/03 05:57:20;;;;;;;29.40;14.27;;;10.30;99.90;;;;;;5013422;28;20022;-78
2022/05/03 05:59:47;;;;;;;25.73;13.13;;;10.30;99.90;;;;;;5013265;28;20072;-78
2022/05/03 06:02:14;;;;;;;29.27;12.82;;;10.30;99.90;;;;;;5013854;28;20032;-78
2022/05/03 06:04:39;;;;;;;23.27;12.48;;;10.40;99.90;;;;;;5013126;28;20068;-78
2022/05/03 06:07:05;;;;;;;22.45;11.88;;;10.40;99.90;;;;;;5013206;28;20022;-78
2022/05/03 06:09:31;;;;;;;25.08;13.05;;;10.60;99.90;;;;;;5013298;28;20026;-78
2022/05/03 06:11:56;;;;;;;22.20;11.98;;;10.40;99.90;;;;;;5013257;28;20041;-78
2022/05/03 06:14:22;;;;;;;18.27;10.50;;;10.40;99.90;;;;;;5012869;28;20053;-78
2022/05/03 06:16:52;;;;;;;14.75;8.80;;;10.40;99.90;;;;;;5028209;28;20400;-78
2022/05/03 06:19:19;;;;;;;9.75;6.25;;;10.30;99.90;;;;;;5028232;28;20165;-78
2022/05/03 06:21:45;;;;;;;7.80;5.05;;;10.20;99.90;;;;;;5027857;28;20033;-78
2022/05/03 06:24:11;;;;;;;9.25;4.60;;;10.00;99.90;;;;;;5012937;28;20030;-78
2022/05/03 06:26:36;;;;;;;6.05;3.53;;;9.90;99.90;;;;;;5013050;28;20025;-78
2022/05/03 06:29:04;;;;;;;11.63;3.78;;;9.70;99.90;;;;;;5013647;28;20048;-78
2022/05/03 06:31:30;;;;;;;8.00;4.20;;;9.60;99.90;;;;;;5014806;28;20021;-79
2022/05/03 06:33:56;;;;;;;5.38;2.58;;;9.60;99.90;;;;;;5013999;28;20026;-79
2022/05/03 06:36:22;;;;;;;3.85;2.97;;;9.50;99.90;;;;;;5014577;28;20046;-78
2022/05/03 06:38:48;;;;;;;9.77;2.83;;;9.40;99.90;;;;;;5014584;28;20128;-79
2022/05/03 06:41:16;;;;;;;5.20;3.10;;;9.40;99.90;;;;;;5014566;28;20571;-79
2022/05/03 06:43:42;;;;;;;9.77;4.15;;;9.30;99.90;;;;;;5016252;28;20022;-79
2022/05/03 06:46:08;;;;;;;10.50;2.97;;;9.30;99.90;;;;;;5018322;28;20523;-79
2022/05/03 06:48:33;;;;;;;6.47;2.53;;;9.30;99.90;;;;;;5019862;28;20301;-79
2022/05/03 06:50:59;;;;;;;9.00;3.05;;;9.30;99.90;;;;;;5022903;28;20034;-79
2022/05/03 06:53:24;;;;;;;10.98;3.55;;;9.40;99.90;;;;;;5023503;28;20049;-78
2022/05/03 06:55:50;;;;;;;8.23;3.25;;;9.40;99.90;;;;;;5022745;28;20025;-78
2022/05/03 06:58:15;;;;;;;12.23;4.60;;;9.40;99.90;;;;;;5027240;28;20068;-78
2022/05/03 07:00:41;;;;;;;8.63;3.97;;;9.50;99.90;;;;;;5030666;28;20065;-78
2022/05/03 07:03:07;;;;;;;6.93;3.40;;;9.50;99.90;;;;;;5033740;28;20086;-78
2022/05/03 07:05:33;;;;;;;9.55;3.85;;;9.50;99.90;;;;;;5035971;28;20528;-78
2022/05/03 07:07:59;;;;;;;10.80;4.18;;;9.60;99.90;;;;;;5034032;28;20020;-78
2022/05/03 07:10:25;;;;;;;15.25;4.32;;;9.70;99.90;;;;;;5033744;28;20029;-78
2022/05/03 07:12:51;;;;;;;7.97;2.92;;;9.80;99.90;;;;;;5034737;28;20034;-78
2022/05/03 07:15:18;;;;;;;14.18;5.07;;;9.80;99.90;;;;;;5035661;28;20022;-78
2022/05/03 07:23:16;;;;;;;13.93;4.68;;;10.00;99.90;;;;;;5035389;28;20056;-77
2022/05/03 07:25:44;;;;;;;11.77;4.03;;;10.20;99.90;;;;;;5035566;28;20026;-78
2022/05/03 07:28:10;;;;;;;8.93;3.03;;;10.20;99.90;;;;;;5032015;28;20018;-78
2022/05/03 07:30:36;;;;;;;6.68;2.75;;;10.20;99.90;;;;;;5033871;28;20050;-78
2022/05/03 07:33:02;;;;;;;12.40;3.38;;;10.30;99.90;;;;;;5032989;28;20081;-78
2022/05/03 07:35:28;;;;;;;8.18;3.25;;;10.40;99.90;;;;;;5031559;28;20033;-78
2022/05/03 07:37:54;;;;;;;5.55;2.50;;;10.60;99.90;;;;;;5029816;28;20081;-78
2022/05/03 07:40:20;;;;;;;12.43;3.00;;;10.70;75.50;;;;;;5030450;28;20030;-78
2022/05/03 07:42:47;;;;;;;6.40;2.30;;;10.90;99.90;;;;;;5027954;28;20042;-78
2022/05/03 07:45:12;;;;;;;12.23;2.65;;;10.80;89.30;;;;;;5031305;28;20030;-78
2022/05/03 07:47:38;;;;;;;11.18;3.60;;;11.10;72.00;;;;;;5031072;28;20033;-78
2022/05/03 07:50:05;;;;;;;12.90;3.05;;;11.20;6.80;;;;;;5028872;28;20049;-77
2022/05/03 07:52:31;;;;;;;9.15;2.80;;;11.10;16.50;;;;;;5029222;28;20026;-78
2022/05/03 07:54:57;;;;;;;12.63;2.78;;;11.10;16.20;;;;;;5025421;28;20090;-78
2022/05/03 07:57:24;;;;;;;7.00;2.15;;;11.20;1.00;;;;;;5029092;28;20022;-78
2022/05/03 07:59:50;;;;;;;4.63;2.00;;;11.20;1.00;;;;;;5028113;28;20032;-77
2022/05/03 08:02:15;;;;;;;6.88;2.20;;;11.10;1.00;;;;;;5028083;28;20030;-77
2022/05/03 08:04:41;;;;;;;7.32;2.78;;;11.30;1.00;;;;;;5027985;28;20030;-77
2022/05/03 08:07:07;;;;;;;11.75;2.63;;;11.40;1.00;;;;;;5028040;28;20026;-77
2022/05/03 08:09:34;;;;;;;6.72;1.88;;;11.40;1.00;;;;;;5029376;28;20060;-78
2022/05/03 08:12:00;;;;;;;10.43;2.65;;;11.50;1.00;;;;;;5041554;28;20105;-78
2022/05/03 08:14:28;;;;;;;5.90;2.78;;;11.90;1.00;;;;;;5029754;28;20057;-78
2022/05/03 08:16:55;;;;;;;8.57;2.67;;;11.90;1.00;;;;;;5043472;28;20642;-78
2022/05/03 08:19:22;;;;;;;5.25;2.42;;;11.80;1.00;;;;;;5027087;28;20022;-78
2022/05/03 08:21:48;;;;;;;7.15;2.78;;;11.80;1.00;;;;;;5040473;28;20022;-78
2022/05/03 08:24:13;;;;;;;9.77;2.25;;;11.80;1.00;;;;;;5024679;28;20072;-78
2022/05/03 08:26:39;;;;;;;7.55;2.45;;;11.70;1.00;;;;;;5040276;28;20474;-77
2022/05/03 08:29:04;;;;;;;9.95;2.55;;;11.70;1.00;;;;;;5025401;28;20426;-77
2022/05/03 08:31:30;;;;;;;8.70;2.28;;;11.70;1.00;;;;;;5026904;28;20029;-78
2022/05/03 08:33:55;;;;;;;5.72;2.75;;;11.70;1.00;;;;;;5024293;28;20030;-78
2022/05/03 08:36:21;;;;;;;6.72;2.20;;;11.80;1.00;;;;;;5037423;28;20026;-78
2022/05/03 08:44:29;;;;;;;7.43;2.17;;;11.80;1.00;;;;;;5022036;28;20542;-78
2022/05/03 08:46:56;;;;;;;15.60;2.80;;;12.00;1.00;;;;;;5024532;28;20034;-78
2022/05/03 08:49:32;;;;;;;12.45;3.00;;;12.00;1.00;;;;;;5025426;28;20164;-78
2022/05/03 08:52:02;;;;;;;5.00;2.38;;;11.90;1.00;;;;;;5026446;28;20503;-77
2022/05/03 08:54:28;;;;;;;10.93;2.28;;;12.20;99.90;;;;;;5026044;28;20076;-78
2022/05/03 08:56:55;;;;;;;8.70;2.63;;;12.00;99.90;;;;;;5024098;28;20022;-78
2022/05/03 08:59:22;;;;;;;7.32;2.63;;;12.20;99.90;;;;;;5025009;28;20045;-78
2022/05/03 09:01:48;;;;;;;8.50;2.47;;;12.40;99.90;;;;;;5027616;28;20049;-78
2022/05/03 09:04:14;;;;;;;6.93;2.33;;;12.80;99.90;;;;;;5024643;28;20105;-78
2022/05/03 09:06:47;;;;;;;3.42;1.60;;;12.60;99.90;;;;;;5028762;28;20065;-78
2022/05/03 09:09:14;;;;;;;9.93;2.85;;;12.80;99.90;;;;;;5025099;28;20045;-78
2022/05/03 09:11:49;;;;;;;7.97;2.20;;;12.80;99.90;;;;;;5026231;28;20026;-78
2022/05/03 09:14:36;;;;;;;3.90;1.80;;;13.10;99.90;;;;;;5025089;28;20092;-78
2022/05/03 09:17:02;;;;;;;5.43;1.70;;;12.80;99.90;;;;;;5028162;28;20022;-78
2022/05/03 09:19:28;;;;;;;13.98;2.50;;;12.70;99.90;;;;;;5025868;28;20034;-78
2022/05/03 09:24:57;;;;;;;5.75;1.80;;;12.70;99.90;;;;;;5030499;28;20597;-78
2022/05/03 09:27:24;;;;;;;6.10;1.63;;;12.70;99.90;;;;;;5029917;28;20022;-78
2022/05/03 09:30:03;;;;;;;5.30;1.63;;;12.70;99.90;;;;;;5027514;28;20382;-77
2022/05/03 09:32:35;;;;;;;8.95;2.30;;;12.90;99.90;;;;;;5024822;28;20026;-78
2022/05/03 09:35:02;;;;;;;6.45;1.30;;;13.00;99.90;;;;;;5020115;28;20380;-78
2022/05/03 09:37:43;;;;;;;7.82;2.20;;;13.00;99.90;;;;;;5021222;28;20029;-77
2022/05/03 09:40:09;;;;;;;9.45;2.70;;;13.30;99.90;;;;;;5024498;28;20034;-78
2022/05/03 09:42:36;;;;;;;4.90;2.15;;;13.60;99.90;;;;;;5022893;28;20030;-78
2022/05/03 09:45:03;;;;;;;13.48;3.78;;;13.60;99.90;;;;;;5019590;28;20053;-78
2022/05/03 09:47:30;;;;;;;8.43;2.80;;;13.70;99.90;;;;;;5020944;28;20018;-78
2022/05/03 09:49:56;;;;;;;6.07;2.03;;;13.20;99.90;;;;;;5021602;28;20029;-78
2022/05/03 09:52:39;;;;;;;11.07;2.38;;;13.30;99.90;;;;;;5020859;28;20022;-78
2022/05/03 09:55:11;;;;;;;5.22;1.63;;;13.30;99.90;;;;;;5019889;28;20040;-78
2022/05/03 09:57:39;;;;;;;6.32;1.73;;;13.10;99.90;;;;;;5020946;28;20018;-77
2022/05/03 10:00:10;;;;;;;8.70;2.38;;;13.10;99.90;;;;;;5018281;28;20384;-78
2022/05/03 10:02:40;;;;;;;6.88;1.70;;;13.20;99.90;;;;;;5018950;28;20037;-77
2022/05/03 10:05:07;;;;;;;4.63;1.58;;;12.90;99.90;;;;;;5018646;28;20041;-77
2022/05/03 10:07:35;;;;;;;4.60;1.50;;;13.30;99.90;;;;;;5018534;28;20057;-77
2022/05/03 10:10:06;;;;;;;4.03;1.88;;;13.60;99.90;;;;;;5018573;28;20057;-77
2022/05/03 10:12:34;;;;;;;6.43;1.30;;;13.90;99.90;;;;;;5021922;28;20026;-77
2022/05/03 10:15:00;;;;;;;6.20;1.33;;;14.00;99.90;;;;;;5017250;28;20049;-77
2022/05/03 10:20:38;;;;;;;3.13;1.00;;;14.60;99.90;;;;;;5021812;28;20486;-77
2022/05/03 10:23:30;;;;;;;6.45;1.65;;;14.50;99.90;;;;;;5022870;28;20022;-77
2022/05/03 10:26:01;;;;;;;5.78;1.60;;;14.90;99.90;;;;;;5021178;28;20045;-77
2022/05/03 10:29:06;;;;;;;1.20;0.65;;;15.10;99.90;;;;;;5020489;28;20026;-77
2022/05/03 10:31:54;;;;;;;4.70;1.58;;;15.20;99.90;;;;;;5021572;28;20049;-77
2022/05/03 10:34:39;;;;;;;4.68;1.30;;;15.50;99.90;;;;;;5019360;28;20025;-77
2022/05/03 10:37:05;;;;;;;3.53;1.40;;;16.80;99.90;;;;;;5021741;28;20281;-77
2022/05/03 10:39:31;;;;;;;3.95;1.70;;;16.30;99.90;;;;;;5020505;28;20125;-77
2022/05/03 10:42:10;;;;;;;5.88;1.70;;;15.30;99.90;;;;;;5025392;28;20096;-77
2022/05/03 10:44:46;;;;;;;2.83;1.10;;;15.50;99.90;;;;;;5022736;28;20089;-77
2022/05/03 10:47:17;;;;;;;3.83;0.70;;;15.80;99.90;;;;;;5019156;28;20022;-77
2022/05/03 10:50:15;;;;;;;6.75;1.80;;;15.80;99.90;;;;;;5018133;28;20030;-77
2022/05/03 10:53:05;;;;;;;2.60;1.25;;;16.00;99.90;;;;;;5022208;28;20030;-77
2022/05/03 10:55:37;;;;;;;8.63;1.58;;;16.10;99.90;;;;;;5021189;28;20069;-77
2022/05/03 10:58:28;;;;;;;1.95;0.85;;;16.80;99.90;;;;;;5019083;28;20026;-77
2022/05/03 11:01:20;;;;;;;6.38;1.45;;;15.90;99.90;;;;;;5017709;28;20375;-77
2022/05/03 11:03:48;;;;;;;3.42;1.08;;;15.30;99.90;;;;;;5020402;28;20021;-77
2022/05/03 11:06:22;;;;;;;5.68;1.35;;;16.30;99.90;;;;;;5022378;28;20021;-77
2022/05/03 11:11:42;;;;;;;4.78;1.45;;;16.60;99.90;;;;;;5021772;28;20053;-77
2022/05/03 11:14:18;;;;;;;5.32;1.27;;;16.20;99.90;;;;;;5018231;28;20518;-77
2022/05/03 11:17:03;;;;;;;1.95;0.70;;;15.80;99.90;;;;;;5019065;28;20014;-77
2022/05/03 11:19:33;;;;;;;2.78;0.57;;;15.90;99.90;;;;;;5016693;28;20026;-77
2022/05/03 11:21:59;;;;;;;;;;;15.30;99.90;;;;;;5022377;28;20476;-77
2022/05/03 11:24:29;;;;;;;5.55;1.30;;;16.50;99.90;;;;;;5019846;28;19905;-77
2022/05/03 11:27:03;;;;;;;5.60;1.48;;;17.00;99.90;;;;;;5019449;28;20022;-77
2022/05/03 11:29:31;;;;;;;4.57;1.17;;;16.70;99.90;;;;;;5020264;28;20076;-77
2022/05/03 11:31:59;;;;;;;3.55;1.58;;;16.20;99.90;;;;;;5018676;28;20022;-77
2022/05/03 11:34:26;;;;;;;2.85;1.10;;;15.90;99.90;;;;;;5021491;28;20022;-77
2022/05/03 11:36:52;;;;;;;4.38;1.40;;;16.40;99.90;;;;;;5019662;28;20018;-77
2022/05/03 11:39:18;;;;;;;3.38;1.17;;;15.90;99.90;;;;;;5017316;28;20021;-77
2022/05/03 11:41:45;;;;;;;4.05;1.05;;;14.80;99.90;;;;;;5019055;28;20069;-77
2022/05/03 11:44:11;;;;;;;4.78;1.40;;;15.40;99.90;;;;;;5019421;28;20088;-77
2022/05/03 11:46:38;;;;;;;7.32;1.50;;;16.00;99.90;;;;;;5016348;28;20022;-77
2022/05/03 11:49:05;;;;;;;3.85;1.17;;;15.70;99.90;;;;;;5016114;28;20388;-77
2022/05/03 11:57:11;;;;;;;5.57;1.65;;;15.30;99.90;;;;;;5015513;28;20447;-77
2022/05/03 11:59:39;;;;;;;4.18;1.40;;;14.80;99.90;;;;;;5015300;28;20030;-77
2022/05/03 12:02:23;;;;;;;1.38;0.90;;;15.30;99.90;;;;;;5016125;28;20072;-77
2022/05/03 12:05:28;;;;;;;4.65;1.40;;;16.30;99.90;;;;;;5018582;28;20053;-77
2022/05/03 12:07:54;;;;;;;3.78;1.15;;;16.50;99.90;;;;;;5018567;28;20029;-77
2022/05/03 12:10:29;;;;;;;5.45;1.50;;;16.80;99.90;;;;;;5016627;28;20538;-77
2022/05/03 12:13:12;;;;;;;4.38;1.20;;;16.50;99.90;;;;;;5015203;28;20100;-77
2022/05/03 12:15:42;;;;;;;4.13;1.75;;;15.80;99.90;;;;;;5017543;28;20053;-77
2022/05/03 12:18:09;;;;;;;;;;;16.20;99.90;;;;;;5017182;28;20030;-77
2022/05/03 12:21:06;;;;;;;1.67;1.08;;;16.70;99.90;;;;;;5016320;28;20327;-77
2022/05/03 12:23:38;;;;;;;4.25;1.20;;;16.80;99.90;;;;;;5019744;28;20477;-77
2022/05/03 12:26:15;;;;;;;3.83;1.10;;;16.70;99.90;;;;;;5015810;28;20166;-77
2022/05/03 12:28:48;;;;;;;2.67;1.00;;;16.30;99.90;;;;;;5014735;28;20026;-77
2022/05/03 12:31:16;;;;;;;1.67;0.80;;;16.20;99.90;;;;;;5016729;28;20333;-77
2022/05/03 12:33:52;;;;;;;4.80;1.83;;;16.20;99.90;;;;;;5014077;28;20044;-78
2022/05/03 12:36:27;;;;;;;3.85;0.93;;;15.70;99.90;;;;;;5016865;28;20456;-78
2022/05/03 12:38:53;;;;;;;3.15;0.80;;;16.10;99.90;;;;;;5014592;28;20101;-78
2022/05/03 12:41:24;;;;;;;5.25;1.58;;;15.20;99.90;;;;;;5014662;28;20114;-78
2022/05/03 12:44:21;;;;;;;3.30;1.30;;;15.20;99.90;;;;;;5014082;28;20365;-78
2022/05/03 12:46:49;;;;;;;4.50;1.27;;;15.90;99.90;;;;;;5010106;28;20480;-78
2022/05/03 12:49:15;;;;;;;5.13;1.67;;;16.20;99.90;;;;;;5013937;28;20492;-78
2022/05/03 12:51:48;;;;;;;1.83;1.05;;;17.00;99.90;;;;;;5013123;28;20109;-78
2022/05/03 12:54:14;;;;;;;1.70;0.80;;;16.10;99.90;;;;;;5013715;28;20026;-78
2022/05/03 12:59:33;;;;;;;6.78;1.70;;;16.20;99.90;;;;;;5013193;28;20095;-78
2022/05/03 13:01:58;;;;;;;4.00;1.50;;;16.40;99.90;;;;;;5013806;28;20030;-78
2022/05/03 13:04:25;;;;;;;3.53;1.40;;;15.60;99.90;;;;;;5012224;28;20079;-78
2022/05/03 13:06:52;;;;;;;3.03;0.95;;;15.30;99.90;;;;;;5013635;28;20057;-78
2022/05/03 13:09:18;;;;;;;4.68;1.55;;;15.40;99.90;;;;;;5015698;28;20022;-78
2022/05/03 13:11:44;;;;;;;1.63;0.98;;;15.90;99.90;;;;;;5014688;28;20030;-78
2022/05/03 13:14:10;;;;;;;2.45;1.25;;;15.80;99.90;;;;;;5012835;28;20065;-78
2022/05/03 13:16:37;;;;;;;3.20;1.40;;;15.10;99.90;;;;;;5014480;28;20064;-78
2022/05/03 13:19:03;;;;;;;5.28;1.42;;;15.30;99.90;;;;;;5013836;28;20556;-78
2022/05/03 13:21:29;;;;;;;7.07;1.70;;;15.20;99.90;;;;;;5010801;28;20040;-78
2022/05/03 13:23:54;;;;;;;2.33;1.15;;;15.40;99.90;;;;;;5011770;28;20049;-78
2022/05/03 13:26:21;;;;;;;5.82;1.35;;;14.80;99.90;;;;;;5013963;28;20469;-78
2022/05/03 13:28:46;;;;;;;2.45;1.23;;;15.20;99.90;;;;;;5012416;28;20026;-78
2022/05/03 13:31:16;;;;;;;6.55;1.58;;;15.30;99.90;;;;;;5014203;28;20030;-78
2022/05/03 13:33:41;;;;;;;5.78;1.63;;;15.90;99.90;;;;;;5016249;28;20361;-78
2022/05/03 13:41:35;;;;;;;5.40;1.58;;;14.70;99.90;;;;;;5016242;28;20503;-78
2022/05/03 13:44:02;;;;;;;6.85;1.75;;;14.90;99.90;;;;;;5016044;28;20030;-78
2022/05/03 13:46:28;;;;;;;7.40;1.48;;;15.10;99.90;;;;;;5015816;28;20101;-78
2022/05/03 13:48:54;;;;;;;1.65;1.02;;;15.20;99.90;;;;;;5015816;28;20061;-78
2022/05/03 13:51:20;;;;;;;2.95;1.52;;;15.10;99.90;;;;;;5015580;28;20157;-78
2022/05/03 13:53:46;;;;;;;4.25;1.23;;;15.20;99.90;;;;;;5015035;28;20057;-78